Time;durP1;ratioP1;P1;durP2;ratioP2;P2;SDS_P1;SDS_P2;PMS_P1;PMS_P2;Temp;Humidity;BMP_temperature;BMP_pressure;BME280_temperature;BME280_humidity;BME280_pressure;Samples;Min_cycle;Max_cycle;Signal;HPM_P1;HPM_P2
2023/05/11 00:02:06;;;;;;;6.07;5.50;;;;;;;10.61;100.00;101604.66;4987036;28;20889;-71
2023/05/11 00:04:32;;;;;;;6.40;5.80;;;;;;;10.66;100.00;101622.09;4981007;28;20682;-71
2023/05/11 00:06:57;;;;;;;6.60;6.00;;;;;;;10.73;100.00;101610.47;4995857;28;20456;-72
2023/05/11 00:09:22;;;;;;;6.40;5.80;;;;;;;10.72;100.00;101658.94;4986693;28;20631;-71
2023/05/11 00:11:48;;;;;;;6.00;5.30;;;;;;;10.93;100.00;101597.34;4985108;28;20186;-71
2023/05/11 00:14:13;;;;;;;7.43;6.70;;;;;;;11.17;100.00;101641.09;4983930;28;20189;-71
2023/05/11 00:16:39;;;;;;;6.30;5.50;;;;;;;11.14;100.00;101652.19;4985024;28;20206;-72
2023/05/11 00:19:04;;;;;;;6.17;5.57;;;;;;;11.08;100.00;101656.47;4985777;28;20190;-71
2023/05/11 00:21:31;;;;;;;8.53;5.70;;;;;;;10.50;100.00;101590.84;4987213;28;20698;-71
2023/05/11 00:23:56;;;;;;;7.07;6.47;;;;;;;10.38;100.00;101560.94;4983468;28;20224;-71
2023/05/11 00:26:22;;;;;;;7.10;6.40;;;;;;;11.17;100.00;101659.91;4984372;28;20429;-71
2023/05/11 00:28:47;;;;;;;6.57;5.83;;;;;;;10.28;100.00;101555.84;4985185;28;20271;-71
2023/05/11 00:31:13;;;;;;;6.53;5.93;;;;;;;10.87;100.00;101659.81;4985813;28;20189;-71
2023/05/11 00:33:38;;;;;;;6.33;5.73;;;;;;;10.79;100.00;101639.25;4983210;28;20596;-71
2023/05/11 00:36:04;;;;;;;6.30;5.70;;;;;;;11.04;100.00;101663.19;4999037;28;20198;-71
2023/05/11 00:38:30;;;;;;;6.07;5.50;;;;;;;10.68;100.00;101588.72;4984211;28;20213;-71
2023/05/11 00:40:55;;;;;;;7.00;6.30;;;;;;;11.19;100.00;101674.78;4984192;28;20185;-71
2023/05/11 00:43:21;;;;;;;6.43;5.83;;;;;;;10.51;100.00;101588.00;4984833;28;20508;-72
2023/05/11 00:45:48;;;;;;;7.33;6.63;;;;;;;11.15;100.00;101662.75;4984859;28;20240;-71
2023/05/11 00:48:14;;;;;;;6.63;6.03;;;;;;;10.67;100.00;101580.81;4984641;28;20220;-71
2023/05/11 00:50:40;;;;;;;7.43;6.73;;;;;;;11.02;100.00;101675.94;4983062;28;20461;-71
2023/05/11 00:53:05;;;;;;;6.93;6.33;;;;;;;10.81;100.00;101609.53;4985672;28;20914;-71
2023/05/11 00:55:31;;;;;;;6.50;5.90;;;;;;;11.02;100.00;101633.00;4984098;28;20714;-72
2023/05/11 00:57:56;;;;;;;6.83;6.23;;;;;;;10.36;100.00;101579.91;4983638;28;20218;-71
2023/05/11 01:00:22;;;;;;;6.63;6.00;;;;;;;11.09;100.00;101645.53;4983358;28;20605;-71
2023/05/11 01:02:48;;;;;;;6.33;5.80;;;;;;;11.14;100.00;101670.97;4982729;28;20468;-71
2023/05/11 01:05:13;;;;;;;7.20;6.50;;;;;;;11.17;100.00;101671.47;4980429;28;20277;-71
2023/05/11 01:07:51;;;;;;;6.27;5.67;;;;;;;10.90;100.00;101680.09;4980315;28;20217;-72
2023/05/11 01:10:19;;;;;;;6.03;5.43;;;;;;;10.45;100.00;101679.09;4979842;28;20220;-71
2023/05/11 01:12:56;;;;;;;6.20;5.60;;;;;;;10.53;100.00;101685.22;4983039;28;20436;-71
2023/05/11 01:15:39;;;;;;;5.80;5.30;;;;;;;10.67;100.00;101680.94;4979940;28;20492;-72
2023/05/11 01:18:37;;;;;;;5.70;5.10;;;;;;;11.05;100.00;101679.13;4980414;28;20464;-71
2023/05/11 01:21:04;;;;;;;5.60;5.10;;;;;;;10.75;100.00;101629.06;4979143;28;20526;-71
2023/05/11 01:24:06;;;;;;;5.63;5.13;;;;;;;11.06;100.00;101682.66;4980317;28;20472;-71
2023/05/11 01:26:31;;;;;;;5.93;5.33;;;;;;;11.22;100.00;101693.22;4979824;28;20432;-71
2023/05/11 01:29:34;;;;;;;5.60;5.10;;;;;;;11.16;100.00;101690.44;4982745;28;20966;-71
2023/05/11 01:32:05;;;;;;;5.47;4.73;;;;;;;10.70;100.00;101650.22;4981234;28;20213;-71
2023/05/11 01:34:34;;;;;;;5.63;5.13;;;;;;;10.43;100.00;101590.75;4980837;28;20441;-71
2023/05/11 01:37:18;;;;;;;6.73;6.07;;;;;;;8.96;100.00;101319.31;4994262;23;20952;-78
2023/05/11 01:39:56;;;;;;;7.00;6.40;;;;;;;9.85;100.00;101522.44;4962405;28;21171;-79
2023/05/11 01:42:30;;;;;;;6.30;5.70;;;;;;;8.73;100.00;101307.72;4983004;28;20440;-79
2023/05/11 01:44:58;;;;;;;6.33;5.73;;;;;;;9.80;100.00;101506.88;4981897;28;20444;-79
2023/05/11 01:47:27;;;;;;;7.67;5.53;;;;;;;8.98;100.00;101369.97;4983539;28;20554;-79
2023/05/11 01:49:54;;;;;;;6.60;6.00;;;;;;;10.02;100.00;101523.16;4980822;28;20934;-79
2023/05/11 01:52:23;;;;;;;5.87;5.37;;;;;;;8.67;100.00;101311.94;4980405;28;20445;-78
2023/05/11 01:54:51;;;;;;;5.53;5.03;;;;;;;8.87;100.00;101340.94;4979527;28;20429;-78
2023/05/11 01:57:18;;;;;;;6.73;6.10;;;;;;;9.57;100.00;101455.94;4985869;28;20496;-79
2023/05/11 01:59:45;;;;;;;6.83;6.23;;;;;;;9.89;100.00;101496.94;4973389;28;20448;-79
2023/05/11 02:02:12;;;;;;;7.00;6.30;;;;;;;8.90;100.00;101308.47;4970371;28;20441;-78
2023/05/11 02:04:40;;;;;;;6.73;6.13;;;;;;;11.23;100.00;101724.44;4972391;28;20590;-79
2023/05/11 02:07:08;;;;;;;6.73;6.13;;;;;;;8.83;100.00;101330.59;4974175;28;20946;-78
2023/05/11 02:09:36;;;;;;;6.50;5.90;;;;;;;9.75;100.00;101493.19;4971687;28;20524;-78
2023/05/11 02:12:03;;;;;;;7.07;6.47;;;;;;;9.63;100.00;101449.06;4967492;28;20799;-79
2023/05/11 02:14:32;;;;;;;6.13;5.60;;;;;;;10.63;100.00;101608.00;4970391;28;20469;-79
2023/05/11 02:17:00;;;;;;;6.10;5.50;;;;;;;10.15;100.00;101612.72;4963322;28;20524;-79
2023/05/11 02:19:28;;;;;;;6.70;6.10;;;;;;;9.73;100.00;101509.44;4972819;28;20452;-79
2023/05/11 02:21:55;;;;;;;7.10;6.50;;;;;;;8.72;100.00;101352.38;4972065;28;20459;-79
2023/05/11 02:24:24;;;;;;;6.33;5.73;;;;;;;8.90;100.00;101386.06;4969770;28;20896;-78
2023/05/11 02:26:49;;;;;;;7.40;6.70;;;;;;;9.43;100.00;101456.72;4969984;28;20453;-78
2023/05/11 02:29:15;;;;;;;6.20;5.70;;;;;;;9.32;100.00;101430.34;4974789;28;20495;-79
2023/05/11 02:31:44;;;;;;;6.70;6.00;;;;;;;8.29;100.00;101309.06;4976775;28;20186;-78
2023/05/11 02:34:19;;;;;;;6.00;5.50;;;;;;;8.70;100.00;101374.94;4959858;28;20615;-79
2023/05/11 02:36:48;;;;;;;5.93;5.43;;;;;;;10.25;100.00;101588.34;4971909;28;20531;-79
2023/05/11 02:39:18;;;;;;;7.30;6.60;;;;;;;8.92;100.00;101493.75;4971623;28;20537;-78
2023/05/11 02:41:45;;;;;;;6.83;6.17;;;;;;;9.65;100.00;101592.50;4972383;28;20445;-78
2023/05/11 02:44:14;;;;;;;6.17;5.57;;;;;;;10.54;100.00;101751.28;4970187;28;20497;-78
2023/05/11 02:46:41;;;;;;;6.50;5.90;;;;;;;9.64;100.00;101603.41;4960792;28;20533;-78
2023/05/11 02:49:09;;;;;;;6.27;5.67;;;;;;;8.29;100.00;101346.47;4974614;28;20510;-78
2023/05/11 02:51:40;;;;;;;6.37;5.77;;;;;;;8.65;100.00;101414.72;4974199;28;20449;-78
2023/05/11 02:54:09;;;;;;;6.10;5.50;;;;;;;8.05;100.00;101367.91;4973620;28;20442;-79
2023/05/11 02:56:35;;;;;;;6.27;5.67;;;;;;;8.16;100.00;101394.28;4973007;28;20436;-79
2023/05/11 02:59:02;;;;;;;7.33;6.63;;;;;;;8.06;100.00;101386.44;4973415;28;20460;-78
2023/05/11 03:01:27;;;;;;;7.50;6.80;;;;;;;8.35;100.00;101372.50;4973379;28;20457;-78
2023/05/11 03:03:53;;;;;;;6.70;6.10;;;;;;;10.72;100.00;101689.28;4971782;28;20495;-78
2023/05/11 03:06:19;;;;;;;6.87;6.23;;;;;;;9.01;100.00;101413.25;4971069;28;20590;-78
2023/05/11 03:08:45;;;;;;;6.17;5.57;;;;;;;9.36;100.00;101480.69;4962819;28;20213;-78
2023/05/11 03:11:13;;;;;;;7.47;6.77;;;;;;;8.63;100.00;101403.41;4969424;28;20189;-78
2023/05/11 03:13:41;;;;;;;6.80;6.20;;;;;;;8.31;100.00;101352.50;4974901;28;20438;-78
2023/05/11 03:16:08;;;;;;;6.33;5.73;;;;;;;9.31;100.00;101558.00;4972195;28;20446;-78
2023/05/11 03:18:35;;;;;;;6.53;5.80;;;;;;;9.03;100.00;101443.38;4988651;28;20867;-78
2023/05/11 03:21:01;;;;;;;6.27;5.67;;;;;;;9.94;100.00;101559.72;4987915;28;20472;-78
2023/05/11 03:23:28;;;;;;;6.33;5.73;;;;;;;9.02;100.00;101510.44;4976478;28;20483;-79
2023/05/11 03:25:55;;;;;;;6.73;6.13;;;;;;;8.85;100.00;101431.22;4975256;28;21012;-77
2023/05/11 03:28:23;;;;;;;6.07;5.47;;;;;;;9.96;100.00;101602.41;4976080;28;20547;-78
2023/05/11 03:30:50;;;;;;;6.23;5.70;;;;;;;8.79;100.00;101438.97;4974785;28;20446;-78
2023/05/11 03:33:16;;;;;;;6.93;6.27;;;;;;;10.07;100.00;101644.91;4975797;28;20535;-78
2023/05/11 03:35:44;;;;;;;6.57;5.97;;;;;;;8.71;100.00;101401.53;4977106;28;20532;-78
2023/05/11 03:38:11;;;;;;;6.40;5.80;;;;;;;8.80;100.00;101416.53;4974077;28;20240;-79
2023/05/11 03:40:40;;;;;;;7.03;6.43;;;;;;;7.97;100.00;101307.31;4980619;28;20445;-81
2023/05/11 03:43:09;;;;;;;7.70;7.00;;;;;;;9.63;100.00;101572.25;4965059;28;20458;-78
2023/05/11 03:45:36;;;;;;;7.53;6.83;;;;;;;8.76;100.00;101473.22;4975607;28;20445;-78
2023/05/11 03:48:04;;;;;;;9.00;8.20;;;;;;;-145.14;100.00;70583.66;4977314;28;20495;-78
2023/05/11 03:50:29;;;;;;;8.57;7.77;;;;;;;-145.14;100.00;70583.66;4972801;28;20441;-77
2023/05/11 03:52:55;;;;;;;7.90;7.10;;;;;;;-145.14;100.00;70583.66;4975433;28;20457;-78
2023/05/11 03:55:21;;;;;;;9.73;8.83;;;;;;;-145.14;100.00;70583.66;4977234;28;20801;-78
2023/05/11 03:57:47;;;;;;;8.30;7.50;;;;;;;-145.14;100.00;70583.66;4980342;28;20213;-78
2023/05/11 04:00:13;;;;;;;7.97;7.17;;;;;;;-145.14;100.00;70583.66;4981909;28;20433;-78
2023/05/11 04:02:39;;;;;;;9.43;8.43;;;;;;;8.67;100.00;101400.19;4982522;28;20472;-79
2023/05/11 04:05:09;;;;;;;8.53;7.73;;;;;;;8.69;100.00;101427.59;4984557;28;20255;-78
2023/05/11 04:07:36;;;;;;;7.10;6.50;;;;;;;8.60;100.00;101343.91;4983433;28;20457;-78
2023/05/11 04:10:03;;;;;;;7.77;7.07;;;;;;;9.21;100.00;101504.69;4981440;28;20504;-78
2023/05/11 04:12:29;;;;;;;8.00;7.30;;;;;;;8.18;100.00;101329.97;4981592;28;20461;-78
2023/05/11 04:14:54;;;;;;;8.90;7.97;;;;;;;10.65;100.00;101792.16;4976825;28;20461;-78
2023/05/11 04:17:20;;;;;;;8.30;7.60;;;;;;;8.68;100.00;101384.97;4982143;28;20209;-78
2023/05/11 04:19:45;;;;;;;8.17;7.37;;;;;;;8.46;100.00;101349.97;4981760;28;20197;-78
2023/05/11 04:22:11;;;;;;;8.73;7.93;;;;;;;9.04;100.00;101489.69;4984408;28;20193;-78
2023/05/11 04:24:37;;;;;;;6.57;5.97;;;;;;;8.41;100.00;101402.28;4981774;28;20310;-78
2023/05/11 04:27:02;;;;;;;7.87;7.10;;;;;;;7.99;100.00;101337.38;4979239;28;20210;-78
2023/05/11 04:29:28;;;;;;;7.67;6.97;;;;;;;9.18;100.00;101515.72;4974158;28;20532;-79
2023/05/11 04:31:54;;;;;;;6.77;6.17;;;;;;;8.67;100.00;101442.16;4976976;28;20702;-78
2023/05/11 04:34:20;;;;;;;6.87;6.27;;;;;;;10.96;100.00;101781.38;4971417;28;20440;-78
2023/05/11 04:36:47;;;;;;;7.60;6.90;;;;;;;9.71;100.00;101594.50;4962857;28;20190;-79
2023/05/11 04:39:12;;;;;;;7.03;6.43;;;;;;;9.19;100.00;101493.31;4974763;28;20325;-79
2023/05/11 04:41:38;;;;;;;7.50;6.90;;;;;;;9.03;100.00;101494.22;4977395;28;20445;-79
2023/05/11 04:44:03;;;;;;;7.33;6.73;;;;;;;9.31;100.00;101541.13;4976257;28;20209;-79
2023/05/11 04:46:29;;;;;;;7.50;6.80;;;;;;;10.08;100.00;101675.22;4974686;28;20590;-79
2023/05/11 04:48:54;;;;;;;6.70;6.10;;;;;;;9.18;100.00;101507.69;4976392;28;20206;-79
2023/05/11 04:51:20;;;;;;;6.20;5.63;;;;;;;9.29;100.00;101543.97;4977696;28;20190;-78
2023/05/11 04:53:45;;;;;;;6.70;6.10;;;;;;;10.73;100.00;101725.84;4978191;28;20918;-80
2023/05/11 04:56:11;;;;;;;6.13;5.63;;;;;;;8.59;100.00;101360.09;4991223;28;20696;-78
2023/05/11 04:58:37;;;;;;;6.47;5.80;;;;;;;10.19;100.00;101634.63;4978551;28;20214;-78
2023/05/11 05:01:02;;;;;;;7.03;6.37;;;;;;;10.06;100.00;101642.41;4978554;28;20206;-78
2023/05/11 05:03:28;;;;;;;7.00;6.40;;;;;;;8.24;100.00;101323.94;4992426;28;20601;-78
2023/05/11 05:05:54;;;;;;;6.70;6.10;;;;;;;8.41;100.00;101360.34;4980642;28;20390;-78
2023/05/11 05:08:20;;;;;;;6.03;5.53;;;;;;;8.80;100.00;101410.34;4980773;28;20446;-79
2023/05/11 05:10:46;;;;;;;6.90;6.20;;;;;;;9.43;100.00;101532.53;4981557;28;20186;-78
2023/05/11 05:13:12;;;;;;;6.23;5.73;;;;;;;8.50;100.00;101387.88;4976883;28;20436;-80
2023/05/11 05:15:37;;;;;;;6.07;5.57;;;;;;;11.17;100.00;101808.41;4980256;28;20805;-78
2023/05/11 05:18:03;;;;;;;6.53;5.93;;;;;;;8.58;100.00;101363.78;4979044;28;20348;-79
2023/05/11 05:20:28;;;;;;;6.27;5.77;;;;;;;8.73;100.00;101447.63;4980665;28;20194;-80
2023/05/11 05:22:54;;;;;;;5.90;5.40;;;;;;;10.49;100.00;101716.09;4980776;28;20597;-79
2023/05/11 05:25:21;;;;;;;5.80;5.30;;;;;;;10.33;100.00;101706.31;4994065;28;20189;-79
2023/05/11 05:27:46;;;;;;;6.83;6.23;;;;;;;9.26;100.00;101544.31;4980441;28;20209;-78
2023/05/11 05:30:12;;;;;;;6.47;5.87;;;;;;;8.96;100.00;101500.41;4980612;28;20424;-79
2023/05/11 05:32:37;;;;;;;6.10;5.50;;;;;;;9.66;100.00;101556.72;4980242;28;20276;-79
2023/05/11 05:35:03;;;;;;;5.67;5.17;;;;;;;9.05;100.00;101467.25;4979001;28;20182;-78
2023/05/11 05:37:28;;;;;;;5.50;4.97;;;;;;;10.12;100.00;101680.06;4980807;28;20281;-79
2023/05/11 05:39:54;;;;;;;5.27;4.77;;;;;;;8.69;100.00;101440.97;4980155;28;20841;-79
2023/05/11 05:42:21;;;;;;;4.67;4.27;;;;;;;9.44;100.00;101594.97;4976518;28;20265;-78
2023/05/11 05:44:46;;;;;;;5.90;5.40;;;;;;;10.17;100.00;101693.78;4978610;28;20220;-78
2023/05/11 05:47:12;;;;;;;6.20;5.60;;;;;;;9.62;100.00;101605.44;4979249;28;20453;-78
2023/05/11 05:49:37;;;;;;;5.57;5.07;;;;;;;8.67;100.00;101448.34;4980087;28;20241;-79
2023/05/11 05:52:03;;;;;;;6.07;5.47;;;;;;;8.72;100.00;101477.25;4978944;28;20654;-78
2023/05/11 05:54:28;;;;;;;5.23;4.73;;;;;;;9.61;100.00;101591.22;4979863;28;20186;-78
2023/05/11 05:56:54;;;;;;;6.00;5.40;;;;;;;9.02;100.00;101478.31;4979842;28;20194;-78
2023/05/11 05:59:22;;;;;;;4.50;4.10;;;;;;;9.86;100.00;101604.47;4980030;28;20181;-78
2023/05/11 06:01:48;;;;;;;5.00;4.60;;;;;;;9.38;100.00;101507.28;4979327;28;20570;-78
2023/05/11 06:04:14;;;;;;;5.43;4.93;;;;;;;9.78;100.00;101645.56;4979631;28;20646;-78
2023/05/11 06:06:40;;;;;;;5.00;4.50;;;;;;;9.79;100.00;101670.50;4977860;28;20478;-78
2023/05/11 06:09:05;;;;;;;5.70;5.17;;;;;;;8.85;100.00;101412.50;4978599;28;20823;-78
2023/05/11 06:11:31;;;;;;;5.23;4.70;;;;;;;9.70;100.00;101611.59;4977661;28;20681;-78
2023/05/11 06:13:56;;;;;;;5.40;4.90;;;;;;;10.69;100.00;101762.09;4978179;28;20694;-79
2023/05/11 06:16:24;;;;;;;5.50;5.00;;;;;;;8.91;100.00;101395.75;4978889;28;20640;-78
2023/05/11 06:18:50;;;;;;;5.00;4.50;;;;;;;10.58;100.00;101709.66;4977730;28;20209;-78
2023/05/11 06:21:15;;;;;;;5.20;4.73;;;;;;;9.03;100.00;101450.56;4978683;28;20460;-77
2023/05/11 06:23:41;;;;;;;4.53;4.13;;;;;;;9.17;100.00;101539.97;4977301;28;20461;-78
2023/05/11 06:26:06;;;;;;;4.50;4.10;;;;;;;9.14;100.00;101540.31;4978385;28;20670;-78
2023/05/11 06:28:31;;;;;;;4.70;4.30;;;;;;;9.25;100.00;101524.72;4979801;28;20217;-78
2023/05/11 06:30:58;;;;;;;3.90;3.60;;;;;;;10.45;100.00;101713.97;4977511;28;20264;-78
2023/05/11 06:33:24;;;;;;;3.90;3.50;;;;;;;10.78;100.00;101771.75;4976402;28;20600;-79
2023/05/11 06:35:49;;;;;;;3.90;3.50;;;;;;;9.68;100.00;101581.44;4977035;28;20734;-79
2023/05/11 06:38:15;;;;;;;3.53;3.07;;;;;;;9.42;100.00;101546.91;4964797;28;20490;-79
2023/05/11 06:40:40;;;;;;;3.83;3.43;;;;;;;9.61;100.00;101569.78;4977991;28;20190;-79
2023/05/11 06:43:06;;;;;;;3.20;2.90;;;;;;;11.35;100.00;101815.34;4978509;28;20674;-79
2023/05/11 06:45:31;;;;;;;3.10;2.80;;;;;;;9.48;100.00;101505.22;4982236;28;20210;-79
2023/05/11 06:47:56;;;;;;;3.23;2.93;;;;;;;9.84;100.00;101579.72;4978070;28;20616;-79
2023/05/11 06:50:22;;;;;;;3.00;2.73;;;;;;;10.79;100.00;101698.31;4978399;28;20194;-80
2023/05/11 06:52:47;;;;;;;2.80;2.50;;;;;;;10.09;100.00;101580.38;4975347;28;20186;-79
2023/05/11 06:55:13;;;;;;;2.50;2.20;;;;;;;9.42;100.00;101485.34;4977094;28;20197;-79
2023/05/11 06:57:39;;;;;;;2.20;2.00;;;;;;;9.66;100.00;101537.09;4977524;28;20213;-79
2023/05/11 07:00:05;;;;;;;3.60;2.00;;;;;;;10.74;100.00;101667.66;4993704;28;20189;-78
2023/05/11 07:02:30;;;;;;;2.33;2.13;;;;;;;10.72;100.00;101675.03;4978448;28;20204;-79
2023/05/11 07:04:57;;;;;;;2.20;2.00;;;;;;;10.35;100.00;101642.59;4977886;28;20981;-78
2023/05/11 07:07:22;;;;;;;2.30;2.10;;;;;;;10.70;100.00;101761.06;4976059;28;20216;-78
2023/05/11 07:09:48;;;;;;;2.40;2.20;;;;;;;9.66;100.00;101580.81;4975966;28;20429;-78
2023/05/11 07:12:14;;;;;;;2.47;2.27;;;;;;;10.12;100.00;101663.13;4978908;28;20707;-78
2023/05/11 07:14:39;;;;;;;2.87;1.90;;;;;;;9.42;100.00;101506.75;4991998;28;20190;-79
2023/05/11 07:17:05;;;;;;;2.23;2.03;;;;;;;8.77;100.00;101422.22;4977725;28;20630;-78
2023/05/11 07:19:30;;;;;;;2.00;1.67;;;;;;;9.42;100.00;101512.09;4977693;28;20686;-78
2023/05/11 07:21:56;;;;;;;1.57;1.40;;;;;;;10.08;100.00;101581.41;4993549;28;20194;-80
2023/05/11 07:24:21;;;;;;;2.13;1.60;;;;;;;9.95;100.00;101590.00;4977714;28;20219;-78
2023/05/11 07:26:50;;;;;;;2.77;1.50;;;;;;;9.95;100.00;101549.81;4977630;28;20205;-78
2023/05/11 07:29:16;;;;;;;2.27;1.40;;;;;;;9.31;100.00;101474.19;4993971;28;20277;-79
2023/05/11 07:31:41;;;;;;;2.33;1.70;;;;;;;9.45;100.00;101482.31;4979038;28;20516;-78
2023/05/11 07:34:07;;;;;;;1.80;1.50;;;;;;;10.05;100.00;101620.13;4978486;28;20190;-78
2023/05/11 07:36:33;;;;;;;1.63;1.40;;;;;;;10.42;100.00;101674.09;4978090;28;20191;-78
2023/05/11 07:39:00;;;;;;;1.43;1.33;;;;;;;11.57;100.00;101810.94;4997284;23;21007;-70
2023/05/11 07:41:26;;;;;;;2.37;1.40;;;;;;;11.37;100.00;101776.53;4998958;28;20182;-71
2023/05/11 07:43:52;;;;;;;1.70;1.47;;;;;;;11.14;100.00;101749.72;4997758;28;20460;-70
2023/05/11 07:46:18;;;;;;;1.70;1.60;;;;;;;11.44;100.00;101825.81;4997438;28;20479;-70
2023/05/11 07:48:43;;;;;;;1.57;1.37;;;;;;;11.15;100.00;101774.69;4996676;28;20933;-70
2023/05/11 07:51:09;;;;;;;1.40;1.20;;;;;;;11.44;100.00;101820.44;4997663;28;20670;-70
2023/05/11 07:53:35;;;;;;;1.40;1.20;;;;;;;11.50;100.00;101797.41;4996922;28;20272;-71
2023/05/11 07:56:02;;;;;;;1.30;1.10;;;;;;;11.38;100.00;101775.50;4995773;28;20196;-70
2023/05/11 07:58:28;;;;;;;1.70;1.33;;;;;;;11.53;100.00;101765.63;4997202;28;20209;-71
2023/05/11 08:00:53;;;;;;;1.53;1.43;;;;;;;11.70;100.00;101787.81;4996884;28;20420;-70
2023/05/11 08:03:18;;;;;;;1.20;1.10;;;;;;;11.27;100.00;101723.06;4997864;28;20216;-70
2023/05/11 08:05:44;;;;;;;1.40;1.30;;;;;;;11.53;100.00;101773.69;4996458;28;20221;-71
2023/05/11 08:08:09;;;;;;;2.03;1.50;;;;;;;11.85;100.00;101814.72;4997578;28;20254;-71
2023/05/11 08:10:35;;;;;;;1.90;1.70;;;;;;;11.72;100.00;101817.19;5001835;28;20185;-70
2023/05/11 08:13:00;;;;;;;1.67;1.30;;;;;;;11.75;100.00;101806.09;5000274;28;20659;-70
2023/05/11 08:15:26;;;;;;;1.67;1.10;;;;;;;11.97;100.00;101810.56;5000366;28;20181;-70
2023/05/11 08:17:52;;;;;;;2.70;1.50;;;;;;;12.09;100.00;101819.03;5002754;28;20205;-70
2023/05/11 08:20:17;;;;;;;1.33;1.20;;;;;;;11.95;100.00;101804.56;5000595;28;20565;-70
2023/05/11 08:22:43;;;;;;;1.57;1.00;;;;;;;11.65;100.00;101741.00;4998541;28;20204;-70
2023/05/11 08:25:09;;;;;;;1.30;1.20;;;;;;;12.23;100.00;101820.03;5000102;28;20744;-70
2023/05/11 08:27:34;;;;;;;1.60;1.30;;;;;;;12.04;100.00;101807.16;4999564;28;20610;-70
2023/05/11 08:30:00;;;;;;;1.40;1.30;;;;;;;12.19;100.00;101824.13;5003765;28;20185;-70
2023/05/11 08:32:26;;;;;;;1.30;1.20;;;;;;;11.74;100.00;101724.63;5000663;28;20196;-70
2023/05/11 08:34:51;;;;;;;1.53;1.03;;;;;;;11.99;100.00;101770.06;4999296;28;20242;-70
2023/05/11 08:37:17;;;;;;;1.73;1.23;;;;;;;12.20;100.00;101828.47;5000032;28;20865;-71
2023/05/11 08:39:43;;;;;;;1.90;1.30;;;;;;;12.27;100.00;101818.66;5000631;28;20631;-70
2023/05/11 08:42:09;;;;;;;1.30;1.10;;;;;;;12.38;100.00;101823.59;5000358;28;20451;-70
2023/05/11 08:44:37;;;;;;;1.63;1.10;;;;;;;12.16;100.00;101786.84;5000572;28;20465;-70
2023/05/11 08:47:05;;;;;;;1.30;1.00;;;;;;;12.39;100.00;101819.88;5003624;28;20431;-70
2023/05/11 08:49:31;;;;;;;1.30;1.10;;;;;;;12.17;100.00;101767.81;5003590;28;20453;-70
2023/05/11 08:51:56;;;;;;;1.57;1.40;;;;;;;11.84;100.00;101727.03;5003454;28;20435;-71
2023/05/11 08:54:22;;;;;;;1.20;1.10;;;;;;;11.91;100.00;101784.44;5005053;28;20425;-70
2023/05/11 08:56:50;;;;;;;1.87;1.40;;;;;;;12.10;100.00;101787.59;5008127;28;20191;-71
2023/05/11 08:59:17;;;;;;;1.40;1.30;;;;;;;11.67;100.00;101738.97;5001216;28;20205;-71
2023/05/11 09:01:44;;;;;;;1.47;1.23;;;;;;;12.19;100.00;101824.13;5003692;28;20917;-70
2023/05/11 09:04:12;;;;;;;2.23;1.70;;;;;;;12.13;100.00;101816.81;5004044;28;20553;-71
2023/05/11 09:06:39;;;;;;;1.60;1.30;;;;;;;12.18;100.00;101771.38;5005265;28;20980;-74
2023/05/11 09:09:04;;;;;;;2.10;1.80;;;;;;;12.28;100.00;101779.97;5004129;28;20452;-74
2023/05/11 09:11:30;;;;;;;2.17;1.30;;;;;;;11.68;100.00;101711.91;5002411;28;20486;-74
2023/05/11 09:13:56;;;;;;;1.73;1.60;;;;;;;12.43;100.00;101823.00;5002636;28;20192;-74
2023/05/11 09:16:21;;;;;;;1.53;1.43;;;;;;;12.19;100.00;101762.28;5002978;28;20185;-74
2023/05/11 09:18:47;;;;;;;2.20;1.60;;;;;;;11.81;100.00;101699.69;5002296;28;20205;-74
2023/05/11 09:21:13;;;;;;;1.67;1.57;;;;;;;12.53;100.00;101799.34;5003910;28;20556;-74
2023/05/11 09:23:39;;;;;;;1.87;1.77;;;;;;;12.60;100.00;101810.19;5002864;28;20464;-74
2023/05/11 09:26:16;;;;;;;1.80;1.70;;;;;;;12.44;100.00;101785.16;5001965;28;20196;-74
2023/05/11 09:28:58;;;;;;;2.10;1.90;;;;;;;12.30;100.00;101790.56;5002350;28;21059;-74
2023/05/11 09:31:44;;;;;;;2.23;1.70;;;;;;;12.69;100.00;101819.81;5002229;28;20420;-74
2023/05/11 09:34:13;;;;;;;1.70;1.60;;;;;;;12.43;100.00;101814.94;5003268;28;20451;-74
2023/05/11 09:36:44;;;;;;;1.67;1.33;;;;;;;12.58;100.00;101814.91;5000739;28;20539;-74
2023/05/11 09:39:09;;;;;;;2.07;1.87;;;;;;;12.58;100.00;101813.06;5002863;28;20471;-74
2023/05/11 09:41:35;;;;;;;2.40;2.10;;;;;;;12.25;100.00;101796.50;5002426;28;20428;-74
2023/05/11 09:44:09;;;;;;;2.20;2.00;;;;;;;12.53;100.00;101811.97;5002499;28;20948;-74
2023/05/11 09:46:38;;;;;;;2.10;1.83;;;;;;;12.28;100.00;101771.91;5000006;28;20466;-74
2023/05/11 09:49:04;;;;;;;2.83;2.60;;;;;;;12.50;100.00;101785.41;5001463;28;20547;-74
2023/05/11 09:51:32;;;;;;;3.37;2.87;;;;;;;12.59;100.00;101811.22;5002957;28;20424;-74
2023/05/11 09:53:59;;;;;;;3.37;3.07;;;;;;;12.51;100.00;101800.56;5003694;28;20428;-74
2023/05/11 09:56:49;;;;;;;3.30;3.00;;;;;;;12.58;100.00;101813.06;5002372;28;20568;-74
2023/05/11 09:59:35;;;;;;;4.03;3.27;;;;;;;12.64;100.00;101814.16;5002850;28;20471;-74
2023/05/11 10:02:18;;;;;;;4.00;3.70;;;;;;;12.78;100.00;101809.75;5001375;28;20558;-74
2023/05/11 10:04:43;;;;;;;3.83;3.50;;;;;;;12.23;100.00;101715.13;5001060;28;20464;-74
2023/05/11 10:07:09;;;;;;;4.07;3.67;;;;;;;12.66;100.00;101761.81;5001305;28;20531;-74
2023/05/11 10:09:35;;;;;;;4.40;4.00;;;;;;;12.94;100.00;101801.47;5001589;28;20209;-74
2023/05/11 10:12:01;;;;;;;4.70;4.30;;;;;;;12.35;100.00;101724.41;5000851;28;20185;-74
2023/05/11 10:14:30;;;;;;;4.83;4.33;;;;;;;12.24;100.00;101660.34;5002621;28;20455;-74
2023/05/11 10:16:56;;;;;;;4.73;4.23;;;;;;;12.40;100.00;101735.41;5000874;28;20419;-74
2023/05/11 10:19:22;;;;;;;4.63;4.10;;;;;;;13.12;100.00;101796.47;5001273;28;20453;-74
2023/05/11 10:21:50;;;;;;;4.20;3.73;;;;;;;13.10;100.00;101801.22;5001192;28;20439;-74
2023/05/11 10:24:16;;;;;;;4.83;4.33;;;;;;;12.25;100.00;101696.97;5001122;28;20209;-74
2023/05/11 10:26:42;;;;;;;4.40;3.83;;;;;;;13.17;100.00;101803.16;5000196;28;20924;-74
2023/05/11 10:29:08;;;;;;;5.53;4.63;;;;;;;13.11;100.00;101799.38;5001033;28;20445;-74
2023/05/11 10:31:35;;;;;;;6.00;5.13;;;;;;;12.63;100.00;101732.56;5001315;28;20913;-74
2023/05/11 10:34:03;;;;;;;7.97;4.70;;;;;;;13.18;100.00;101794.03;5005649;28;20821;-74
2023/05/11 10:36:29;;;;;;;4.33;3.80;;;;;;;12.52;100.00;101692.69;5001430;28;20440;-75
2023/05/11 10:38:55;;;;;;;6.10;4.53;;;;;;;13.15;100.00;101797.13;5000598;28;20460;-74
2023/05/11 10:41:25;;;;;;;4.17;3.77;;;;;;;13.25;100.00;101792.22;5001348;28;20803;-75
2023/05/11 10:44:29;;;;;;;3.33;2.80;;;;;;;13.31;100.00;101796.91;4999697;28;20208;-74
2023/05/11 10:47:13;;;;;;;3.90;3.50;;;;;;;13.28;100.00;101791.91;4998028;28;20491;-74
2023/05/11 10:49:42;;;;;;;3.77;3.33;;;;;;;13.39;100.00;101796.72;5000562;28;20507;-74
2023/05/11 10:52:47;;;;;;;4.87;3.50;;;;;;;13.47;100.00;101798.47;4998515;28;20457;-74
2023/05/11 10:55:26;;;;;;;4.47;3.13;;;;;;;13.49;100.00;101794.56;4958694;28;20496;-74
2023/05/11 10:58:01;;;;;;;4.43;3.60;;;;;;;13.46;100.00;101799.50;4943299;28;20470;-74
2023/05/11 11:01:08;;;;;;;3.60;3.30;;;;;;;13.39;100.00;101801.28;4984842;28;20428;-74
2023/05/11 11:03:34;;;;;;;3.90;3.50;;;;;;;13.27;100.00;101788.34;5001539;28;20467;-74
2023/05/11 11:06:00;;;;;;;4.10;3.70;;;;;;;12.91;100.00;101699.53;5000191;28;20806;-75
2023/05/11 11:08:25;;;;;;;3.40;3.10;;;;;;;13.12;100.00;101725.59;5001707;28;20448;-75
2023/05/11 11:10:51;;;;;;;5.70;3.10;;;;;;;13.10;100.00;101731.19;5000308;28;20558;-75
2023/05/11 11:13:22;;;;;;;3.10;2.60;;;;;;;13.51;100.00;101776.34;5001012;28;20189;-75
2023/05/11 11:15:56;;;;;;;3.77;2.87;;;;;;;13.65;100.00;101785.34;4998965;28;20181;-75
2023/05/11 11:18:26;;;;;;;3.37;2.70;;;;;;;13.10;100.00;101684.56;4999734;28;20451;-75
2023/05/11 11:20:53;;;;;;;2.70;2.43;;;;;;;13.72;100.00;101785.41;5000020;28;20432;-75
2023/05/11 11:23:41;;;;;;;2.37;2.17;;;;;;;13.73;100.00;101773.59;5000147;28;20463;-74